Time,TemperatureF,DewpointF,PressureIn,WindDirection,WindDirectionDegrees,WindSpeedMPH,WindSpeedGustMPH,Humidity,HourlyPrecipIn,Conditions,Clouds,dailyrainin,SolarRadiationWatts/m^2,SoftwareType,DateUTC
2014-09-19 00:00:00,62.1,47.3,29.71,South,182,0.0,-999.0,59,-99.99,,,0.00,0.0,cwc,2014-09-19 06:00:00,
2014-09-19 00:05:00,61.9,47.5,29.72,South,182,0.0,-999.0,60,-99.99,,,0.00,0.0,cwc,2014-09-19 06:05:00,
2014-09-19 00:10:00,61.7,48.0,29.72,South,182,0.0,-999.0,62,-99.99,,,0.00,0.0,cwc,2014-09-19 06:10:00,
2014-09-19 00:15:00,61.5,47.8,29.72,South,182,0.0,-999.0,62,-99.99,,,0.00,0.0,cwc,2014-09-19 06:15:00,
2014-09-19 00:25:00,61.3,47.3,29.72,South,182,0.0,-999.0,61,-99.99,,,0.00,0.0,cwc,2014-09-19 06:25:00,
2014-09-19 00:30:00,61.1,47.1,29.72,South,182,0.0,-999.0,61,-99.99,,,0.00,0.0,cwc,2014-09-19 06:30:00,
2014-09-19 00:35:00,60.9,47.2,29.72,South,182,0.0,-999.0,62,-99.99,,,0.00,0.0,cwc,2014-09-19 06:35:00,
2014-09-19 00:45:00,60.4,46.7,29.72,South,182,0.0,-999.0,62,-99.99,,,0.00,0.0,cwc,2014-09-19 06:45:00,
2014-09-19 00:50:00,60.1,47.1,29.72,South,182,0.0,-999.0,64,-99.99,,,0.00,0.0,cwc,2014-09-19 06:50:00,
2014-09-19 00:55:00,59.8,47.6,29.72,South,182,0.0,-999.0,66,-99.99,,,0.00,0.0,cwc,2014-09-19 06:55:00,
2014-09-19 01:00:00,59.5,47.3,29.71,South,182,0.0,-999.0,66,-99.99,,,0.00,0.0,cwc,2014-09-19 07:00:00,
2014-09-19 01:05:00,59.5,47.3,29.72,South,182,0.0,-999.0,66,-99.99,,,0.00,0.0,cwc,2014-09-19 07:05:00,
2014-09-19 01:10:00,59.5,48.3,29.71,South,182,0.0,-999.0,69,-99.99,,,0.00,0.0,cwc,2014-09-19 07:10:00,
2014-09-19 01:15:00,59.5,48.0,29.71,South,182,0.0,-999.0,68,-99.99,,,0.00,0.0,cwc,2014-09-19 07:15:00,
2014-09-19 01:20:00,59.5,47.6,29.71,South,182,0.0,-999.0,67,-99.99,,,0.00,0.0,cwc,2014-09-19 07:20:00,
2014-09-19 01:25:00,59.4,48.6,29.71,South,182,0.0,-999.0,70,-99.99,,,0.00,0.0,cwc,2014-09-19 07:25:00,
2014-09-19 01:30:00,59.4,47.9,29.71,South,182,0.0,-999.0,68,-99.99,,,0.00,0.0,cwc,2014-09-19 07:30:00,
2014-09-19 01:35:00,59.3,48.5,29.71,South,182,0.0,-999.0,70,-99.99,,,0.00,0.0,cwc,2014-09-19 07:35:00,
2014-09-19 01:40:00,59.0,47.8,29.71,South,182,0.0,-999.0,69,-99.99,,,0.00,0.0,cwc,2014-09-19 07:40:00,
2014-09-19 01:45:00,59.0,47.8,29.70,South,182,0.0,-999.0,69,-99.99,,,0.00,0.0,cwc,2014-09-19 07:45:00,
2014-09-19 01:50:00,59.0,47.8,29.70,South,182,0.0,-999.0,69,-99.99,,,0.00,0.0,cwc,2014-09-19 07:50:00,
2014-09-19 01:55:00,59.0,48.2,29.70,South,183,0.0,-999.0,70,-99.99,,,0.00,0.0,cwc,2014-09-19 07:55:00,
2014-09-19 02:00:00,59.0,48.2,29.70,South,183,0.0,-999.0,70,-99.99,,,0.00,0.0,cwc,2014-09-19 08:00:00,
2014-09-19 02:05:00,58.8,48.4,29.70,South,183,0.0,-999.0,71,-99.99,,,0.00,0.0,cwc,2014-09-19 08:05:00,
2014-09-19 02:10:00,58.7,48.6,29.70,South,183,0.0,-999.0,72,-99.99,,,0.00,0.0,cwc,2014-09-19 08:10:00,
2014-09-19 02:15:00,58.5,48.4,29.70,South,183,0.0,-999.0,72,-99.99,,,0.00,0.0,cwc,2014-09-19 08:15:00,
2014-09-19 02:20:00,58.6,48.9,29.70,South,183,0.0,-999.0,73,-99.99,,,0.00,0.0,cwc,2014-09-19 08:20:00,
2014-09-19 02:25:00,58.6,48.9,29.70,South,183,0.0,-999.0,73,-99.99,,,0.00,0.0,cwc,2014-09-19 08:25:00,
2014-09-19 02:30:00,58.5,48.4,29.70,South,183,0.0,-999.0,72,-99.99,,,0.00,0.0,cwc,2014-09-19 08:30:00,
2014-09-19 02:40:00,58.0,48.6,29.69,South,183,0.0,-999.0,74,-99.99,,,0.00,0.0,cwc,2014-09-19 08:40:00,
2014-09-19 02:45:00,58.0,48.6,29.70,South,183,0.0,-999.0,74,-99.99,,,0.00,0.0,cwc,2014-09-19 08:45:00,
2014-09-19 02:50:00,58.0,48.6,29.70,South,183,0.0,-999.0,74,-99.99,,,0.00,0.0,cwc,2014-09-19 08:50:00,
2014-09-19 02:55:00,57.9,48.9,29.70,South,183,0.0,-999.0,75,-99.99,,,0.00,0.0,cwc,2014-09-19 08:55:00,
2014-09-19 03:00:00,57.7,48.0,29.69,South,183,0.0,-999.0,73,-99.99,,,0.00,0.0,cwc,2014-09-19 09:00:00,
2014-09-19 03:05:00,57.7,48.7,29.70,South,183,0.0,-999.0,75,-99.99,,,0.00,0.0,cwc,2014-09-19 09:05:00,
2014-09-19 03:10:00,57.8,48.8,29.69,South,183,0.0,-999.0,75,-99.99,,,0.00,0.0,cwc,2014-09-19 09:10:00,
2014-09-19 03:15:00,58.0,49.0,29.69,South,183,0.0,-999.0,75,-99.99,,,0.00,0.0,cwc,2014-09-19 09:15:00,
2014-09-19 03:20:00,58.1,48.7,29.69,South,183,0.0,-999.0,74,-99.99,,,0.00,0.0,cwc,2014-09-19 09:20:00,
2014-09-19 03:25:00,58.0,48.6,29.69,South,183,0.0,-999.0,74,-99.99,,,0.00,0.0,cwc,2014-09-19 09:25:00,
2014-09-19 03:30:00,57.9,48.5,29.69,South,183,0.0,-999.0,74,-99.99,,,0.00,0.0,cwc,2014-09-19 09:30:00,
2014-09-19 03:35:00,57.8,48.4,29.69,South,183,0.0,-999.0,74,-99.99,,,0.00,0.0,cwc,2014-09-19 09:35:00,
2014-09-19 03:40:00,57.6,48.2,29.69,South,183,0.0,-999.0,74,-99.99,,,0.00,0.0,cwc,2014-09-19 09:40:00,
2014-09-19 03:45:00,57.2,47.8,29.69,South,183,0.0,-999.0,74,-99.99,,,0.00,0.0,cwc,2014-09-19 09:45:00,
2014-09-19 03:50:00,56.9,47.5,29.70,South,183,0.0,-999.0,74,-99.99,,,0.00,0.0,cwc,2014-09-19 09:50:00,
2014-09-19 03:55:00,56.4,47.4,29.69,South,183,0.0,-999.0,75,-99.99,,,0.00,0.0,cwc,2014-09-19 09:55:00,
2014-09-19 04:00:00,56.1,47.5,29.69,South,183,0.0,-999.0,76,-99.99,,,0.00,0.0,cwc,2014-09-19 10:00:00,
2014-09-19 04:05:00,55.7,47.4,29.69,South,183,0.0,-999.0,77,-99.99,,,0.00,0.0,cwc,2014-09-19 10:05:00,
2014-09-19 04:10:00,55.3,47.0,29.69,South,183,0.0,-999.0,77,-99.99,,,0.00,0.0,cwc,2014-09-19 10:10:00,
2014-09-19 04:15:00,55.0,47.4,29.69,South,183,0.0,-999.0,79,-99.99,,,0.00,0.0,cwc,2014-09-19 10:15:00,
2014-09-19 04:20:00,54.8,47.2,29.69,South,183,0.0,-999.0,79,-99.99,,,0.00,0.0,cwc,2014-09-19 10:20:00,
2014-09-19 04:25:00,54.6,47.0,29.70,South,183,0.0,-999.0,79,-99.99,,,0.00,0.0,cwc,2014-09-19 10:25:00,
2014-09-19 04:30:00,54.4,47.2,29.70,South,183,0.0,-999.0,80,-99.99,,,0.00,0.0,cwc,2014-09-19 10:30:00,
2014-09-19 04:35:00,54.4,47.6,29.70,South,183,0.0,-999.0,81,-99.99,,,0.00,0.0,cwc,2014-09-19 10:35:00,
2014-09-19 04:40:00,54.4,46.8,29.70,South,183,0.0,-999.0,79,-99.99,,,0.00,0.0,cwc,2014-09-19 10:40:00,
2014-09-19 04:45:00,54.3,47.1,29.71,South,183,0.0,-999.0,80,-99.99,,,0.00,0.0,cwc,2014-09-19 10:45:00,
2014-09-19 04:50:00,54.1,46.9,29.71,South,183,0.0,-999.0,80,-99.99,,,0.00,0.0,cwc,2014-09-19 10:50:00,
2014-09-19 04:55:00,53.9,46.7,29.71,South,183,0.0,-999.0,80,-99.99,,,0.00,0.0,cwc,2014-09-19 10:55:00,
2014-09-19 05:00:00,53.8,46.6,29.71,South,183,0.0,-999.0,80,-99.99,,,0.00,0.0,cwc,2014-09-19 11:00:00,
2014-09-19 05:05:00,53.6,46.8,29.71,South,183,0.0,-999.0,81,-99.99,,,0.00,0.0,cwc,2014-09-19 11:05:00,
2014-09-19 05:10:00,53.5,46.7,29.71,South,183,0.0,-999.0,81,-99.99,,,0.00,0.0,cwc,2014-09-19 11:10:00,
2014-09-19 05:15:00,53.5,46.7,29.71,South,183,0.0,-999.0,81,-99.99,,,0.00,0.0,cwc,2014-09-19 11:15:00,
2014-09-19 05:20:00,53.4,46.6,29.71,South,183,0.0,-999.0,81,-99.99,,,0.00,0.0,cwc,2014-09-19 11:20:00,
2014-09-19 05:25:00,53.3,46.5,29.71,South,183,0.0,-999.0,81,-99.99,,,0.00,0.0,cwc,2014-09-19 11:25:00,
2014-09-19 05:30:00,53.3,46.5,29.71,South,183,0.0,-999.0,81,-99.99,,,0.00,0.0,cwc,2014-09-19 11:30:00,
2014-09-19 05:35:00,53.4,46.6,29.71,South,183,0.0,-999.0,81,-99.99,,,0.00,0.0,cwc,2014-09-19 11:35:00,
2014-09-19 05:40:00,53.6,46.8,29.71,South,183,0.0,-999.0,81,-99.99,,,0.00,0.0,cwc,2014-09-19 11:40:00,
2014-09-19 05:45:00,53.7,46.9,29.72,South,183,0.0,-999.0,81,-99.99,,,0.00,0.0,cwc,2014-09-19 11:45:00,
2014-09-19 05:50:00,53.6,46.8,29.71,South,183,0.0,-999.0,81,-99.99,,,0.00,0.0,cwc,2014-09-19 11:50:00,
2014-09-19 05:55:00,53.4,46.6,29.71,South,183,0.0,-999.0,81,-99.99,,,0.00,0.0,cwc,2014-09-19 11:55:00,
2014-09-19 06:00:00,53.2,46.4,29.72,South,183,0.0,-999.0,81,-99.99,,,0.00,0.0,cwc,2014-09-19 12:00:00,
2014-09-19 06:05:00,52.8,46.3,29.72,South,183,0.0,-999.0,82,-99.99,,,0.00,0.0,cwc,2014-09-19 12:05:00,
2014-09-19 06:10:00,52.7,46.2,29.72,South,183,0.0,-999.0,82,-99.99,,,0.00,0.0,cwc,2014-09-19 12:10:00,
2014-09-19 06:15:00,52.7,46.2,29.72,South,183,0.0,-999.0,82,-99.99,,,0.00,0.0,cwc,2014-09-19 12:15:00,
2014-09-19 06:20:00,52.9,46.1,29.73,South,183,0.0,-999.0,81,-99.99,,,0.00,0.0,cwc,2014-09-19 12:20:00,
2014-09-19 06:25:00,52.9,45.7,29.73,South,183,0.0,-999.0,80,-99.99,,,0.00,0.0,cwc,2014-09-19 12:25:00,
2014-09-19 06:30:00,52.7,45.5,29.73,South,183,0.0,-999.0,80,-99.99,,,0.00,0.0,cwc,2014-09-19 12:30:00,
2014-09-19 06:35:00,52.5,45.3,29.73,South,183,0.0,-999.0,80,-99.99,,,0.00,0.0,cwc,2014-09-19 12:35:00,
2014-09-19 06:40:00,52.2,45.4,29.73,South,183,0.0,-999.0,81,-99.99,,,0.00,0.0,cwc,2014-09-19 12:40:00,
2014-09-19 06:45:00,52.0,45.2,29.73,South,183,0.0,-999.0,81,-99.99,,,0.00,0.0,cwc,2014-09-19 12:45:00,
2014-09-19 06:50:00,51.8,45.0,29.73,South,183,0.0,-999.0,81,-99.99,,,0.00,0.0,cwc,2014-09-19 12:50:00,
2014-09-19 06:55:00,51.8,45.3,29.73,South,183,0.0,-999.0,82,-99.99,,,0.00,0.0,cwc,2014-09-19 12:55:00,
2014-09-19 07:05:00,51.8,45.7,29.73,South,183,0.0,-999.0,83,-99.99,,,0.00,0.0,cwc,2014-09-19 13:05:00,
2014-09-19 07:10:00,51.9,45.8,29.73,South,183,0.0,-999.0,83,-99.99,,,0.00,0.0,cwc,2014-09-19 13:10:00,
2014-09-19 07:15:00,51.9,45.8,29.74,South,183,0.0,-999.0,83,-99.99,,,0.00,0.0,cwc,2014-09-19 13:15:00,
2014-09-19 07:20:00,52.1,46.0,29.73,South,183,0.0,-999.0,83,-99.99,,,0.00,0.0,cwc,2014-09-19 13:20:00,
2014-09-19 07:25:00,52.2,45.7,29.74,South,183,0.0,-999.0,82,-99.99,,,0.00,0.0,cwc,2014-09-19 13:25:00,
2014-09-19 07:30:00,52.2,45.7,29.74,South,183,0.0,-999.0,82,-99.99,,,0.00,0.0,cwc,2014-09-19 13:30:00,
2014-09-19 07:35:00,52.4,45.9,29.74,South,183,0.0,-999.0,82,-99.99,,,0.00,0.0,cwc,2014-09-19 13:35:00,
2014-09-19 07:40:00,52.7,46.2,29.74,South,183,0.0,-999.0,82,-99.99,,,0.00,0.0,cwc,2014-09-19 13:40:00,
2014-09-19 07:45:00,53.2,46.4,29.74,South,183,0.0,-999.0,81,-99.99,,,0.00,0.0,cwc,2014-09-19 13:45:00,
2014-09-19 07:50:00,54.0,46.8,29.74,South,183,0.0,-999.0,80,-99.99,,,0.00,0.0,cwc,2014-09-19 13:50:00,
2014-09-19 07:55:00,54.8,47.2,29.74,South,183,0.0,-999.0,79,-99.99,,,0.00,0.0,cwc,2014-09-19 13:55:00,
2014-09-19 08:00:00,55.7,47.8,29.74,South,183,0.0,-999.0,78,-99.99,,,0.00,0.0,cwc,2014-09-19 14:00:00,
2014-09-19 08:05:00,56.7,47.7,29.74,South,183,0.0,-999.0,75,-99.99,,,0.00,0.0,cwc,2014-09-19 14:05:00,
2014-09-19 08:10:00,57.5,47.1,29.74,South,183,0.0,-999.0,71,-99.99,,,0.00,0.0,cwc,2014-09-19 14:10:00,
2014-09-19 08:15:00,58.3,47.5,29.74,South,183,0.0,-999.0,70,-99.99,,,0.00,0.0,cwc,2014-09-19 14:15:00,
2014-09-19 08:20:00,59.0,47.5,29.74,South,183,0.0,-999.0,68,-99.99,,,0.00,0.0,cwc,2014-09-19 14:20:00,
2014-09-19 08:25:00,59.4,47.5,29.74,South,183,0.0,-999.0,67,-99.99,,,0.00,0.0,cwc,2014-09-19 14:25:00,
2014-09-19 08:30:00,60.0,47.8,29.74,South,183,0.0,-999.0,66,-99.99,,,0.00,0.0,cwc,2014-09-19 14:30:00,
2014-09-19 08:35:00,60.6,48.0,29.74,South,183,0.0,-999.0,65,-99.99,,,0.00,0.0,cwc,2014-09-19 14:35:00,
2014-09-19 08:40:00,61.2,48.2,29.74,South,184,0.0,-999.0,64,-99.99,,,0.00,0.0,cwc,2014-09-19 14:40:00,
2014-09-19 08:45:00,61.7,48.4,29.74,South,184,0.0,-999.0,63,-99.99,,,0.00,0.0,cwc,2014-09-19 14:45:00,
2014-09-19 08:50:00,62.0,48.7,29.74,South,183,0.0,-999.0,63,-99.99,,,0.00,0.0,cwc,2014-09-19 14:50:00,
2014-09-19 08:55:00,62.4,48.7,29.74,South,184,0.0,-999.0,62,-99.99,,,0.00,0.0,cwc,2014-09-19 14:55:00,
2014-09-19 09:00:00,62.7,49.0,29.73,South,183,0.0,-999.0,62,-99.99,,,0.00,0.0,cwc,2014-09-19 15:00:00,
2014-09-19 09:05:00,63.2,49.2,29.73,South,183,0.0,-999.0,61,-99.99,,,0.00,0.0,cwc,2014-09-19 15:05:00,
2014-09-19 09:10:00,63.5,49.5,29.73,South,183,0.0,-999.0,61,-99.99,,,0.00,0.0,cwc,2014-09-19 15:10:00,
2014-09-19 09:15:00,64.0,50.3,29.73,South,183,0.0,-999.0,62,-99.99,,,0.00,0.0,cwc,2014-09-19 15:15:00,
2014-09-19 09:20:00,64.6,50.6,29.73,South,183,0.0,-999.0,61,-99.99,,,0.00,0.0,cwc,2014-09-19 15:20:00,
2014-09-19 09:25:00,65.2,50.8,29.72,South,183,0.0,-999.0,60,-99.99,,,0.00,0.0,cwc,2014-09-19 15:25:00,
2014-09-19 09:30:00,65.8,51.0,29.72,South,183,0.0,-999.0,59,-99.99,,,0.00,0.0,cwc,2014-09-19 15:30:00,
2014-09-19 09:35:00,66.5,51.4,29.72,South,183,0.0,-999.0,58,-99.99,,,0.00,0.0,cwc,2014-09-19 15:35:00,
2014-09-19 09:40:00,67.1,51.6,29.72,South,183,0.0,-999.0,57,-99.99,,,0.00,0.0,cwc,2014-09-19 15:40:00,
2014-09-19 09:45:00,67.6,51.8,29.72,South,183,0.0,-999.0,56,-99.99,,,0.00,0.0,cwc,2014-09-19 15:45:00,
2014-09-19 09:50:00,68.3,52.1,29.72,South,183,0.0,-999.0,55,-99.99,,,0.00,0.0,cwc,2014-09-19 15:50:00,
2014-09-19 09:55:00,69.0,52.4,29.72,South,183,0.0,-999.0,54,-99.99,,,0.00,0.0,cwc,2014-09-19 15:55:00,
2014-09-19 10:00:00,69.5,52.6,29.72,South,184,0.0,-999.0,53,-99.99,,,0.00,0.0,cwc,2014-09-19 16:00:00,
2014-09-19 10:05:00,69.9,53.0,29.71,South,184,0.0,-999.0,53,-99.99,,,0.00,0.0,cwc,2014-09-19 16:05:00,
2014-09-19 10:10:00,70.1,53.2,29.71,South,184,0.0,-999.0,53,-99.99,,,0.00,0.0,cwc,2014-09-19 16:10:00,
2014-09-19 10:15:00,70.6,53.7,29.71,South,184,0.0,-999.0,53,-99.99,,,0.00,0.0,cwc,2014-09-19 16:15:00,
2014-09-19 10:20:00,71.2,53.9,29.71,South,184,0.0,-999.0,52,-99.99,,,0.00,0.0,cwc,2014-09-19 16:20:00,
2014-09-19 10:25:00,71.3,54.0,29.71,South,185,0.0,-999.0,52,-99.99,,,0.00,0.0,cwc,2014-09-19 16:25:00,
2014-09-19 10:30:00,71.6,54.3,29.70,South,185,0.0,-999.0,52,-99.99,,,0.00,0.0,cwc,2014-09-19 16:30:00,
2014-09-19 10:35:00,72.1,54.5,29.70,South,183,0.0,-999.0,51,-99.99,,,0.00,0.0,cwc,2014-09-19 16:35:00,
2014-09-19 10:40:00,72.2,54.2,29.70,West,265,0.0,-999.0,50,-99.99,,,0.00,0.0,cwc,2014-09-19 16:40:00,
2014-09-19 10:45:00,72.3,54.7,29.70,West,266,0.0,-999.0,51,-99.99,,,0.00,0.0,cwc,2014-09-19 16:45:00,
2014-09-19 10:50:00,72.4,54.4,29.70,West,267,0.0,-999.0,50,-99.99,,,0.00,0.0,cwc,2014-09-19 16:50:00,
2014-09-19 10:55:00,72.6,54.6,29.69,WNW,293,0.0,-999.0,50,-99.99,,,0.00,0.0,cwc,2014-09-19 16:55:00,
2014-09-19 11:00:00,73.2,54.8,29.69,WNW,292,0.0,-999.0,49,-99.99,,,0.00,0.0,cwc,2014-09-19 17:00:00,
2014-09-19 11:05:00,74.0,55.3,29.69,WNW,292,0.0,-999.0,48,-99.99,,,0.00,0.0,cwc,2014-09-19 17:05:00,
2014-09-19 11:10:00,74.3,55.2,29.69,WNW,296,0.0,-999.0,47,-99.99,,,0.00,0.0,cwc,2014-09-19 17:10:00,
2014-09-19 11:15:00,74.2,55.5,29.68,WNW,303,0.0,-999.0,48,-99.99,,,0.00,0.0,cwc,2014-09-19 17:15:00,
2014-09-19 11:20:00,74.2,55.8,29.68,NW,317,0.0,-999.0,49,-99.99,,,0.00,0.0,cwc,2014-09-19 17:20:00,
2014-09-19 11:30:00,74.7,55.6,29.67,NW,310,0.0,-999.0,47,-99.99,,,0.00,0.0,cwc,2014-09-19 17:30:00,
2014-09-19 11:35:00,74.8,55.4,29.67,WNW,298,0.0,-999.0,46,-99.99,,,0.00,0.0,cwc,2014-09-19 17:35:00,
2014-09-19 11:40:00,75.2,55.4,29.67,NW,304,0.0,-999.0,45,-99.99,,,0.00,0.0,cwc,2014-09-19 17:40:00,
2014-09-19 11:45:00,75.4,55.2,29.66,NW,304,0.0,-999.0,44,-99.99,,,0.00,0.0,cwc,2014-09-19 17:45:00,
2014-09-19 11:50:00,75.6,55.8,29.66,NW,321,0.0,-999.0,45,-99.99,,,0.00,0.0,cwc,2014-09-19 17:50:00,
2014-09-19 11:55:00,76.0,55.1,29.66,NW,321,0.0,-999.0,42,-99.99,,,0.00,0.0,cwc,2014-09-19 17:55:00,
2014-09-19 12:00:00,76.4,55.2,29.66,NW,319,0.0,-999.0,41,-99.99,,,0.00,0.0,cwc,2014-09-19 18:00:00,
2014-09-19 12:05:00,76.9,56.0,29.65,NW,318,0.0,-999.0,42,-99.99,,,0.00,0.0,cwc,2014-09-19 18:05:00,
2014-09-19 12:10:00,77.8,56.6,29.65,NW,318,0.0,-999.0,41,-99.99,,,0.00,0.0,cwc,2014-09-19 18:10:00,
2014-09-19 12:15:00,78.6,56.6,29.65,NW,310,0.0,-999.0,39,-99.99,,,0.00,0.0,cwc,2014-09-19 18:15:00,
2014-09-19 12:20:00,78.7,56.7,29.65,WNW,302,0.0,-999.0,39,-99.99,,,0.00,0.0,cwc,2014-09-19 18:20:00,
2014-09-19 12:25:00,78.4,56.4,29.65,WNW,302,0.0,-999.0,39,-99.99,,,0.00,0.0,cwc,2014-09-19 18:25:00,
2014-09-19 12:30:00,78.4,56.4,29.64,WNW,301,0.0,-999.0,39,-99.99,,,0.00,0.0,cwc,2014-09-19 18:30:00,
2014-09-19 12:35:00,78.7,56.4,29.64,WNW,300,0.0,-999.0,38,-99.99,,,0.00,0.0,cwc,2014-09-19 18:35:00,
2014-09-19 12:40:00,78.7,56.0,29.64,WNW,290,0.0,-999.0,37,-99.99,,,0.00,0.0,cwc,2014-09-19 18:40:00,
2014-09-19 12:45:00,78.5,55.5,29.64,WNW,283,0.0,-999.0,36,-99.99,,,0.00,0.0,cwc,2014-09-19 18:45:00,
2014-09-19 12:50:00,78.3,55.6,29.64,WNW,283,0.0,-999.0,37,-99.99,,,0.00,0.0,cwc,2014-09-19 18:50:00,
2014-09-19 12:55:00,78.7,56.0,29.63,WNW,283,0.0,-999.0,37,-99.99,,,0.00,0.0,cwc,2014-09-19 18:55:00,
2014-09-19 13:00:00,79.2,56.5,29.63,WNW,283,0.0,-999.0,37,-99.99,,,0.00,0.0,cwc,2014-09-19 19:00:00,
2014-09-19 13:05:00,79.4,56.4,29.63,WNW,283,0.0,-999.0,36,-99.99,,,0.00,0.0,cwc,2014-09-19 19:05:00,
2014-09-19 13:10:00,79.7,56.3,29.62,WNW,283,0.0,-999.0,35,-99.99,,,0.00,0.0,cwc,2014-09-19 19:10:00,
2014-09-19 13:15:00,80.2,56.4,29.62,West,281,0.0,-999.0,34,-99.99,,,0.00,0.0,cwc,2014-09-19 19:15:00,
2014-09-19 13:20:00,80.4,56.6,29.62,West,267,0.0,-999.0,34,-99.99,,,0.00,0.0,cwc,2014-09-19 19:20:00,
2014-09-19 13:25:00,80.4,56.3,29.61,West,262,0.0,-999.0,33,-99.99,,,0.00,0.0,cwc,2014-09-19 19:25:00,
2014-09-19 13:30:00,80.5,56.4,29.61,West,261,0.0,-999.0,33,-99.99,,,0.00,0.0,cwc,2014-09-19 19:30:00,
2014-09-19 13:35:00,80.9,56.8,29.60,West,262,0.0,-999.0,33,-99.99,,,0.00,0.0,cwc,2014-09-19 19:35:00,
2014-09-19 13:40:00,81.2,56.7,29.60,West,262,0.0,-999.0,32,-99.99,,,0.00,0.0,cwc,2014-09-19 19:40:00,
2014-09-19 13:45:00,81.4,56.9,29.60,West,262,0.0,-999.0,32,-99.99,,,0.00,0.0,cwc,2014-09-19 19:45:00,
2014-09-19 13:50:00,81.4,56.9,29.59,West,262,0.0,-999.0,32,-99.99,,,0.00,0.0,cwc,2014-09-19 19:50:00,
2014-09-19 13:55:00,81.7,57.2,29.59,West,262,0.0,-999.0,32,-99.99,,,0.00,0.0,cwc,2014-09-19 19:55:00,
2014-09-19 14:00:00,81.9,57.4,29.59,West,262,0.0,-999.0,32,-99.99,,,0.00,0.0,cwc,2014-09-19 20:00:00,
2014-09-19 14:05:00,82.2,57.7,29.58,West,261,0.0,-999.0,32,-99.99,,,0.00,0.0,cwc,2014-09-19 20:05:00,
2014-09-19 14:10:00,82.8,58.0,29.58,West,261,0.0,-999.0,31,-99.99,,,0.00,0.0,cwc,2014-09-19 20:10:00,
2014-09-19 14:15:00,83.3,58.5,29.58,West,275,0.0,-999.0,31,-99.99,,,0.00,0.0,cwc,2014-09-19 20:15:00,
2014-09-19 14:20:00,83.6,58.4,29.58,West,275,0.0,-999.0,30,-99.99,,,0.00,0.0,cwc,2014-09-19 20:20:00,
2014-09-19 14:25:00,83.7,58.1,29.58,West,275,0.0,-999.0,29,-99.99,,,0.00,0.0,cwc,2014-09-19 20:25:00,
2014-09-19 14:30:00,83.9,58.7,29.57,West,275,0.0,-999.0,30,-99.99,,,0.00,0.0,cwc,2014-09-19 20:30:00,
2014-09-19 14:35:00,84.7,58.8,29.57,West,275,0.0,-999.0,28,-99.99,,,0.00,0.0,cwc,2014-09-19 20:35:00,
2014-09-19 14:40:00,85.2,59.3,29.57,West,272,0.0,-999.0,28,-99.99,,,0.00,0.0,cwc,2014-09-19 20:40:00,